sensor_id;sensor_type;location;lat;lon;timestamp;pressure;altitude;pressure_sealevel;temperature
70333;BMP280;57747;43.548;-5.704;2022-07-01T00:00:18;102045.06;;;15.18
70333;BMP280;57747;43.548;-5.704;2022-07-01T00:02:44;102045.59;;;15.25
70333;BMP280;57747;43.548;-5.704;2022-07-01T00:05:10;102041.00;;;15.21
70333;BMP280;57747;43.548;-5.704;2022-07-01T00:07:38;102041.59;;;15.13
70333;BMP280;57747;43.548;-5.704;2022-07-01T00:10:04;102045.34;;;15.17
70333;BMP280;57747;43.548;-5.704;2022-07-01T00:12:32;102042.66;;;15.12
70333;BMP280;57747;43.548;-5.704;2022-07-01T00:15:03;102050.00;;;15.01
70333;BMP280;57747;43.548;-5.704;2022-07-01T00:17:29;102035.44;;;15.02
70333;BMP280;57747;43.548;-5.704;2022-07-01T00:19:55;102037.34;;;14.96
70333;BMP280;57747;43.548;-5.704;2022-07-01T00:22:20;102038.44;;;14.90
70333;BMP280;57747;43.548;-5.704;2022-07-01T00:24:46;102032.19;;;14.95
70333;BMP280;57747;43.548;-5.704;2022-07-01T00:27:15;102028.72;;;14.89
70333;BMP280;57747;43.548;-5.704;2022-07-01T00:29:40;102029.00;;;14.87
70333;BMP280;57747;43.548;-5.704;2022-07-01T00:32:09;102024.41;;;14.83
70333;BMP280;57747;43.548;-5.704;2022-07-01T00:34:38;102023.88;;;14.76
70333;BMP280;57747;43.548;-5.704;2022-07-01T00:37:08;102019.06;;;14.72
70333;BMP280;57747;43.548;-5.704;2022-07-01T00:39:37;102020.94;;;14.72
70333;BMP280;57747;43.548;-5.704;2022-07-01T00:42:04;102016.09;;;14.69
70333;BMP280;57747;43.548;-5.704;2022-07-01T00:44:30;102022.03;;;14.66
70333;BMP280;57747;43.548;-5.704;2022-07-01T00:47:03;102021.75;;;14.62
70333;BMP280;57747;43.548;-5.704;2022-07-01T00:49:29;102012.59;;;14.58
70333;BMP280;57747;43.548;-5.704;2022-07-01T00:51:58;102015.88;;;14.40
70333;BMP280;57747;43.548;-5.704;2022-07-01T00:54:25;102019.66;;;14.39
70333;BMP280;57747;43.548;-5.704;2022-07-01T00:56:56;102008.88;;;14.39
70333;BMP280;57747;43.548;-5.704;2022-07-01T01:01:49;102012.13;;;14.35
70333;BMP280;57747;43.548;-5.704;2022-07-01T01:04:14;102022.91;;;14.35
70333;BMP280;57747;43.548;-5.704;2022-07-01T01:06:40;102018.84;;;14.33
70333;BMP280;57747;43.548;-5.704;2022-07-01T01:09:08;102013.19;;;14.29
70333;BMP280;57747;43.548;-5.704;2022-07-01T01:11:34;102006.19;;;14.28
70333;BMP280;57747;43.548;-5.704;2022-07-01T01:13:59;102012.41;;;14.29
70333;BMP280;57747;43.548;-5.704;2022-07-01T01:16:25;102014.53;;;14.27
70333;BMP280;57747;43.548;-5.704;2022-07-01T01:18:51;102010.22;;;14.26
70333;BMP280;57747;43.548;-5.704;2022-07-01T01:21:20;102008.38;;;14.21
70333;BMP280;57747;43.548;-5.704;2022-07-01T01:23:46;102009.97;;;14.17
70333;BMP280;57747;43.548;-5.704;2022-07-01T01:26:16;102007.56;;;14.10
70333;BMP280;57747;43.548;-5.704;2022-07-01T01:28:41;102004.56;;;14.07
70333;BMP280;57747;43.548;-5.704;2022-07-01T01:31:07;102003.78;;;14.06
70333;BMP280;57747;43.548;-5.704;2022-07-01T01:33:32;102006.97;;;14.13
70333;BMP280;57747;43.548;-5.704;2022-07-01T01:36:00;102001.88;;;14.17
70333;BMP280;57747;43.548;-5.704;2022-07-01T01:38:26;102007.81;;;14.19
70333;BMP280;57747;43.548;-5.704;2022-07-01T01:40:51;102001.59;;;14.13
70333;BMP280;57747;43.548;-5.704;2022-07-01T01:43:17;102001.34;;;13.89
70333;BMP280;57747;43.548;-5.704;2022-07-01T01:45:43;102011.84;;;14.01
70333;BMP280;57747;43.548;-5.704;2022-07-01T01:48:08;102018.84;;;14.02
70333;BMP280;57747;43.548;-5.704;2022-07-01T01:50:34;102011.59;;;13.97
70333;BMP280;57747;43.548;-5.704;2022-07-01T01:52:59;102008.34;;;14.00
70333;BMP280;57747;43.548;-5.704;2022-07-01T01:55:25;102006.44;;;13.96
70333;BMP280;57747;43.548;-5.704;2022-07-01T01:57:50;102012.69;;;13.91
70333;BMP280;57747;43.548;-5.704;2022-07-01T02:00:16;102010.00;;;13.91
70333;BMP280;57747;43.548;-5.704;2022-07-01T02:02:45;102011.84;;;13.86
70333;BMP280;57747;43.548;-5.704;2022-07-01T02:05:13;102002.97;;;13.90
70333;BMP280;57747;43.548;-5.704;2022-07-01T02:07:42;102004.84;;;13.90
70333;BMP280;57747;43.548;-5.704;2022-07-01T02:10:11;102001.09;;;14.11
70333;BMP280;57747;43.548;-5.704;2022-07-01T02:12:36;102006.19;;;14.23
70333;BMP280;57747;43.548;-5.704;2022-07-01T02:15:02;101997.84;;;14.30
70333;BMP280;57747;43.548;-5.704;2022-07-01T02:17:28;101996.19;;;14.39
70333;BMP280;57747;43.548;-5.704;2022-07-01T02:19:57;102000.25;;;14.42
70333;BMP280;57747;43.548;-5.704;2022-07-01T02:22:24;101989.97;;;14.33
70333;BMP280;57747;43.548;-5.704;2022-07-01T02:24:50;101995.94;;;14.25
70333;BMP280;57747;43.548;-5.704;2022-07-01T02:27:16;101994.03;;;14.26
70333;BMP280;57747;43.548;-5.704;2022-07-01T02:29:41;101987.59;;;14.22
70333;BMP280;57747;43.548;-5.704;2022-07-01T02:32:07;101987.31;;;14.23
70333;BMP280;57747;43.548;-5.704;2022-07-01T02:34:33;101982.19;;;14.22
70333;BMP280;57747;43.548;-5.704;2022-07-01T02:37:02;101987.84;;;14.25
70333;BMP280;57747;43.548;-5.704;2022-07-01T02:39:28;101989.22;;;14.17
70333;BMP280;57747;43.548;-5.704;2022-07-01T02:41:53;101988.94;;;14.14
70333;BMP280;57747;43.548;-5.704;2022-07-01T02:44:40;101983.81;;;13.97
70333;BMP280;57747;43.548;-5.704;2022-07-01T02:47:09;101982.19;;;13.96
70333;BMP280;57747;43.548;-5.704;2022-07-01T02:49:34;101969.50;;;13.71
70333;BMP280;57747;43.548;-5.704;2022-07-01T02:52:04;101981.13;;;13.87
70333;BMP280;57747;43.548;-5.704;2022-07-01T02:54:30;101983.84;;;13.87
70333;BMP280;57747;43.548;-5.704;2022-07-01T02:56:56;101974.38;;;13.84
70333;BMP280;57747;43.548;-5.704;2022-07-01T03:01:51;101967.38;;;13.73
70333;BMP280;57747;43.548;-5.704;2022-07-01T03:04:18;101969.50;;;13.55
70333;BMP280;57747;43.548;-5.704;2022-07-01T03:06:44;101961.16;;;13.52
70333;BMP280;57747;43.548;-5.704;2022-07-01T03:09:10;101963.00;;;13.41
70333;BMP280;57747;43.548;-5.704;2022-07-01T03:11:35;101962.47;;;13.44
70333;BMP280;57747;43.548;-5.704;2022-07-01T03:14:01;101951.69;;;13.39
70333;BMP280;57747;43.548;-5.704;2022-07-01T03:16:27;101958.16;;;13.38
70333;BMP280;57747;43.548;-5.704;2022-07-01T03:18:52;101951.69;;;13.39
70333;BMP280;57747;43.548;-5.704;2022-07-01T03:21:18;101953.84;;;13.42
70333;BMP280;57747;43.548;-5.704;2022-07-01T03:23:44;101958.16;;;13.43
70333;BMP280;57747;43.548;-5.704;2022-07-01T03:26:10;101959.50;;;13.51
70333;BMP280;57747;43.548;-5.704;2022-07-01T03:28:38;101962.78;;;13.58
70333;BMP280;57747;43.548;-5.704;2022-07-01T03:31:03;101961.94;;;13.57
70333;BMP280;57747;43.548;-5.704;2022-07-01T03:33:29;101960.34;;;13.56
70333;BMP280;57747;43.548;-5.704;2022-07-01T03:35:54;101963.03;;;13.56
70333;BMP280;57747;43.548;-5.704;2022-07-01T03:38:20;101953.31;;;13.45
70333;BMP280;57747;43.548;-5.704;2022-07-01T03:40:45;101965.97;;;13.39
70333;BMP280;57747;43.548;-5.704;2022-07-01T03:43:11;101962.22;;;13.40
70333;BMP280;57747;43.548;-5.704;2022-07-01T03:45:36;101959.50;;;13.40
70333;BMP280;57747;43.548;-5.704;2022-07-01T03:48:05;101961.13;;;13.41
70333;BMP280;57747;43.548;-5.704;2022-07-01T03:50:30;101956.03;;;13.45
70333;BMP280;57747;43.548;-5.704;2022-07-01T03:52:56;101958.44;;;13.52
70333;BMP280;57747;43.548;-5.704;2022-07-01T03:55:40;101954.94;;;13.56
70333;BMP280;57747;43.548;-5.704;2022-07-01T03:58:08;101944.19;;;13.56
70333;BMP280;57747;43.548;-5.704;2022-07-01T04:00:35;101951.72;;;13.64
70333;BMP280;57747;43.548;-5.704;2022-07-01T04:03:02;101957.66;;;13.67
70333;BMP280;57747;43.548;-5.704;2022-07-01T04:05:34;101959.81;;;13.59
70333;BMP280;57747;43.548;-5.704;2022-07-01T04:08:04;101963.88;;;13.67
70333;BMP280;57747;43.548;-5.704;2022-07-01T04:10:31;101964.94;;;13.71
70333;BMP280;57747;43.548;-5.704;2022-07-01T04:13:01;101956.88;;;13.71
70333;BMP280;57747;43.548;-5.704;2022-07-01T04:15:28;101961.16;;;13.72
70333;BMP280;57747;43.548;-5.704;2022-07-01T04:17:53;101957.38;;;13.68
70333;BMP280;57747;43.548;-5.704;2022-07-01T04:20:19;101963.84;;;13.72
70333;BMP280;57747;43.548;-5.704;2022-07-01T04:22:53;101957.41;;;13.73
70333;BMP280;57747;43.548;-5.704;2022-07-01T04:25:23;101961.69;;;13.74
70333;BMP280;57747;43.548;-5.704;2022-07-01T04:27:49;101956.03;;;13.76
70333;BMP280;57747;43.548;-5.704;2022-07-01T04:30:17;101965.75;;;13.72
70333;BMP280;57747;43.548;-5.704;2022-07-01T04:32:43;101968.94;;;13.69
70333;BMP280;57747;43.548;-5.704;2022-07-01T04:35:08;101968.44;;;13.56
70333;BMP280;57747;43.548;-5.704;2022-07-01T04:37:40;101970.03;;;13.52
70333;BMP280;57747;43.548;-5.704;2022-07-01T04:40:06;101975.41;;;13.52
70333;BMP280;57747;43.548;-5.704;2022-07-01T04:42:35;101977.56;;;13.55
70333;BMP280;57747;43.548;-5.704;2022-07-01T04:45:03;101973.00;;;13.51
70333;BMP280;57747;43.548;-5.704;2022-07-01T04:47:31;101980.78;;;13.42
70333;BMP280;57747;43.548;-5.704;2022-07-01T04:49:57;101972.19;;;13.45
70333;BMP280;57747;43.548;-5.704;2022-07-01T04:52:24;101978.06;;;13.42
70333;BMP280;57747;43.548;-5.704;2022-07-01T04:54:51;101979.72;;;13.48
70333;BMP280;57747;43.548;-5.704;2022-07-01T04:57:18;101981.34;;;13.49
70333;BMP280;57747;43.548;-5.704;2022-07-01T04:59:49;101976.75;;;13.44
70333;BMP280;57747;43.548;-5.704;2022-07-01T05:02:17;101985.09;;;13.48
70333;BMP280;57747;43.548;-5.704;2022-07-01T05:04:45;101980.00;;;13.52
70333;BMP280;57747;43.548;-5.704;2022-07-01T05:07:10;101986.72;;;13.49
70333;BMP280;57747;43.548;-5.704;2022-07-01T05:09:54;101995.38;;;13.56
70333;BMP280;57747;43.548;-5.704;2022-07-01T05:12:26;101987.53;;;13.55
70333;BMP280;57747;43.548;-5.704;2022-07-01T05:14:54;101987.28;;;13.56
70333;BMP280;57747;43.548;-5.704;2022-07-01T05:17:27;101994.56;;;13.66
70333;BMP280;57747;43.548;-5.704;2022-07-01T05:20:15;101994.59;;;13.71
70333;BMP280;57747;43.548;-5.704;2022-07-01T05:23:03;101995.97;;;13.74
70333;BMP280;57747;43.548;-5.704;2022-07-01T05:25:28;101997.81;;;13.78
70333;BMP280;57747;43.548;-5.704;2022-07-01T05:27:54;101991.63;;;13.83
70333;BMP280;57747;43.548;-5.704;2022-07-01T05:30:22;101991.09;;;13.86
70333;BMP280;57747;43.548;-5.704;2022-07-01T05:32:55;102000.56;;;13.99
70333;BMP280;57747;43.548;-5.704;2022-07-01T05:35:21;101992.72;;;14.03
70333;BMP280;57747;43.548;-5.704;2022-07-01T05:37:47;101998.38;;;14.06
70333;BMP280;57747;43.548;-5.704;2022-07-01T05:40:15;101996.50;;;14.12
70333;BMP280;57747;43.548;-5.704;2022-07-01T05:42:52;101996.75;;;14.15
70333;BMP280;57747;43.548;-5.704;2022-07-01T05:45:18;101994.63;;;14.17
70333;BMP280;57747;43.548;-5.704;2022-07-01T05:47:48;101997.03;;;14.24
70333;BMP280;57747;43.548;-5.704;2022-07-01T05:50:14;101998.91;;;14.29
70333;BMP280;57747;43.548;-5.704;2022-07-01T05:52:43;102004.03;;;14.30
70333;BMP280;57747;43.548;-5.704;2022-07-01T05:55:12;102002.41;;;14.34
70333;BMP280;57747;43.548;-5.704;2022-07-01T05:57:38;102014.28;;;14.39
70333;BMP280;57747;43.548;-5.704;2022-07-01T06:00:11;102009.94;;;14.48
70333;BMP280;57747;43.548;-5.704;2022-07-01T06:02:39;102011.28;;;14.50
70333;BMP280;57747;43.548;-5.704;2022-07-01T06:05:07;102003.19;;;14.55
70333;BMP280;57747;43.548;-5.704;2022-07-01T06:07:33;102009.91;;;14.58
70333;BMP280;57747;43.548;-5.704;2022-07-01T06:10:04;102012.59;;;14.63
70333;BMP280;57747;43.548;-5.704;2022-07-01T06:12:29;102008.78;;;14.69
70333;BMP280;57747;43.548;-5.704;2022-07-01T06:14:58;102014.16;;;14.74
70333;BMP280;57747;43.548;-5.704;2022-07-01T06:17:26;102020.91;;;14.77
70333;BMP280;57747;43.548;-5.704;2022-07-01T06:19:52;102015.22;;;14.89
70333;BMP280;57747;43.548;-5.704;2022-07-01T06:22:24;102011.97;;;14.87
70333;BMP280;57747;43.548;-5.704;2022-07-01T06:24:57;102016.03;;;14.89
70333;BMP280;57747;43.548;-5.704;2022-07-01T06:27:23;102017.09;;;14.88
70333;BMP280;57747;43.548;-5.704;2022-07-01T06:29:54;102007.69;;;14.91
70333;BMP280;57747;43.548;-5.704;2022-07-01T06:32:20;102017.88;;;14.99
70333;BMP280;57747;43.548;-5.704;2022-07-01T06:34:46;102010.53;;;15.10
70333;BMP280;57747;43.548;-5.704;2022-07-01T06:37:15;102014.00;;;15.21
70333;BMP280;57747;43.548;-5.704;2022-07-01T06:39:44;102009.13;;;15.23
70333;BMP280;57747;43.548;-5.704;2022-07-01T06:42:12;102011.81;;;15.23
70333;BMP280;57747;43.548;-5.704;2022-07-01T06:44:42;102013.19;;;15.20
70333;BMP280;57747;43.548;-5.704;2022-07-01T06:47:10;102012.88;;;15.27
70333;BMP280;57747;43.548;-5.704;2022-07-01T06:49:41;102000.72;;;15.24
70333;BMP280;57747;43.548;-5.704;2022-07-01T06:52:08;102001.41;;;15.45
70333;BMP280;57747;43.548;-5.704;2022-07-01T06:54:34;102002.78;;;15.43
70333;BMP280;57747;43.548;-5.704;2022-07-01T06:57:07;101998.94;;;15.54
70333;BMP280;57747;43.548;-5.704;2022-07-01T06:59:32;101999.19;;;15.58
70333;BMP280;57747;43.548;-5.704;2022-07-01T07:01:58;101997.50;;;15.62
70333;BMP280;57747;43.548;-5.704;2022-07-01T07:04:24;101995.00;;;15.76
70333;BMP280;57747;43.548;-5.704;2022-07-01T07:06:52;101992.31;;;15.76
70333;BMP280;57747;43.548;-5.704;2022-07-01T07:09:21;101988.72;;;15.80
70333;BMP280;57747;43.548;-5.704;2022-07-01T07:11:52;101983.56;;;15.84
70333;BMP280;57747;43.548;-5.704;2022-07-01T07:14:19;101981.06;;;15.93
70333;BMP280;57747;43.548;-5.704;2022-07-01T07:16:48;101985.06;;;15.95
70333;BMP280;57747;43.548;-5.704;2022-07-01T07:19:19;101990.47;;;16.00
70333;BMP280;57747;43.548;-5.704;2022-07-01T07:21:47;101983.63;;;16.08
70333;BMP280;57747;43.548;-5.704;2022-07-01T07:24:15;101989.56;;;16.10
70333;BMP280;57747;43.548;-5.704;2022-07-01T07:26:44;101989.19;;;16.22
70333;BMP280;57747;43.548;-5.704;2022-07-01T07:29:15;101994.22;;;16.29
70333;BMP280;57747;43.548;-5.704;2022-07-01T07:31:44;101995.00;;;16.34
70333;BMP280;57747;43.548;-5.704;2022-07-01T07:34:09;101995.13;;;16.48
70333;BMP280;57747;43.548;-5.704;2022-07-01T07:36:37;101995.34;;;16.52
70333;BMP280;57747;43.548;-5.704;2022-07-01T07:39:02;101990.06;;;16.66
70333;BMP280;57747;43.548;-5.704;2022-07-01T07:41:30;101990.44;;;16.78
70333;BMP280;57747;43.548;-5.704;2022-07-01T07:43:55;101991.50;;;16.77
70333;BMP280;57747;43.548;-5.704;2022-07-01T07:46:23;101999.69;;;16.96
70333;BMP280;57747;43.548;-5.704;2022-07-01T07:48:51;101995.00;;;17.02
70333;BMP280;57747;43.548;-5.704;2022-07-01T07:51:19;101999.59;;;17.01
70333;BMP280;57747;43.548;-5.704;2022-07-01T07:53:50;101999.69;;;16.96
70333;BMP280;57747;43.548;-5.704;2022-07-01T07:56:18;101987.53;;;17.13
70333;BMP280;57747;43.548;-5.704;2022-07-01T07:58:47;101990.84;;;17.28
70333;BMP280;57747;43.548;-5.704;2022-07-01T08:01:15;101992.88;;;17.37
70333;BMP280;57747;43.548;-5.704;2022-07-01T08:03:41;101996.97;;;17.53
70333;BMP280;57747;43.548;-5.704;2022-07-01T08:06:07;101993.06;;;17.59
70333;BMP280;57747;43.548;-5.704;2022-07-01T08:08:32;102000.06;;;17.79
70333;BMP280;57747;43.548;-5.704;2022-07-01T08:10:58;101989.22;;;17.93
70333;BMP280;57747;43.548;-5.704;2022-07-01T08:13:27;101988.84;;;18.28
70333;BMP280;57747;43.548;-5.704;2022-07-01T08:15:55;101995.88;;;18.43
70333;BMP280;57747;43.548;-5.704;2022-07-01T08:18:24;101986.84;;;18.98
70333;BMP280;57747;43.548;-5.704;2022-07-01T08:20:56;101983.06;;;19.30
70333;BMP280;57747;43.548;-5.704;2022-07-01T08:23:22;101995.72;;;19.57
70333;BMP280;57747;43.548;-5.704;2022-07-01T08:25:49;101997.81;;;19.60
70333;BMP280;57747;43.548;-5.704;2022-07-01T08:28:15;101991.47;;;19.65
70333;BMP280;57747;43.548;-5.704;2022-07-01T08:30:44;101997.19;;;19.95
70333;BMP280;57747;43.548;-5.704;2022-07-01T08:33:12;102002.53;;;20.00
70333;BMP280;57747;43.548;-5.704;2022-07-01T08:35:41;101999.72;;;19.82
70333;BMP280;57747;43.548;-5.704;2022-07-01T08:38:09;102004.44;;;19.99
70333;BMP280;57747;43.548;-5.704;2022-07-01T08:40:40;102003.13;;;20.54
70333;BMP280;57747;43.548;-5.704;2022-07-01T08:43:14;102007.75;;;20.45
70333;BMP280;57747;43.548;-5.704;2022-07-01T08:45:41;101997.69;;;19.97
70333;BMP280;57747;43.548;-5.704;2022-07-01T08:48:14;102000.94;;;20.65
70333;BMP280;57747;43.548;-5.704;2022-07-01T08:50:40;101996.09;;;20.97
70333;BMP280;57747;43.548;-5.704;2022-07-01T08:53:08;101996.09;;;20.79
70333;BMP280;57747;43.548;-5.704;2022-07-01T08:55:43;101989.06;;;20.96
70333;BMP280;57747;43.548;-5.704;2022-07-01T08:58:31;101987.13;;;20.88
70333;BMP280;57747;43.548;-5.704;2022-07-01T09:01:17;101987.41;;;20.34
70333;BMP280;57747;43.548;-5.704;2022-07-01T09:03:44;101985.06;;;20.76
70333;BMP280;57747;43.548;-5.704;2022-07-01T09:06:21;101981.66;;;19.86
70333;BMP280;57747;43.548;-5.704;2022-07-01T09:08:50;101991.75;;;19.95
70333;BMP280;57747;43.548;-5.704;2022-07-01T09:11:19;101986.53;;;20.16
70333;BMP280;57747;43.548;-5.704;2022-07-01T09:14:06;101988.69;;;19.87
70333;BMP280;57747;43.548;-5.704;2022-07-01T09:16:43;101989.31;;;19.53
70333;BMP280;57747;43.548;-5.704;2022-07-01T09:19:09;101996.81;;;20.19
70333;BMP280;57747;43.548;-5.704;2022-07-01T09:21:37;101997.03;;;20.31
70333;BMP280;57747;43.548;-5.704;2022-07-01T09:24:05;101998.19;;;20.56
70333;BMP280;57747;43.548;-5.704;2022-07-01T09:26:34;102003.00;;;20.85
70333;BMP280;57747;43.548;-5.704;2022-07-01T09:29:00;101996.69;;;20.41
70333;BMP280;57747;43.548;-5.704;2022-07-01T09:31:36;101991.00;;;20.95
70333;BMP280;57747;43.548;-5.704;2022-07-01T09:34:15;101999.28;;;21.25
70333;BMP280;57747;43.548;-5.704;2022-07-01T09:36:51;102003.84;;;21.59
70333;BMP280;57747;43.548;-5.704;2022-07-01T09:39:20;101999.59;;;21.32
70333;BMP280;57747;43.548;-5.704;2022-07-01T09:41:49;102004.44;;;21.74
70333;BMP280;57747;43.548;-5.704;2022-07-01T09:44:17;101999.22;;;21.98
70333;BMP280;57747;43.548;-5.704;2022-07-01T09:46:55;102000.38;;;22.18
70333;BMP280;57747;43.548;-5.704;2022-07-01T09:49:25;102005.53;;;22.11
70333;BMP280;57747;43.548;-5.704;2022-07-01T09:51:51;101999.69;;;22.00
70333;BMP280;57747;43.548;-5.704;2022-07-01T09:54:20;101988.25;;;21.69
70333;BMP280;57747;43.548;-5.704;2022-07-01T09:56:45;101993.88;;;21.64
70333;BMP280;57747;43.548;-5.704;2022-07-01T09:59:14;101997.56;;;22.06
70333;BMP280;57747;43.548;-5.704;2022-07-01T10:01:41;101985.09;;;21.88
70333;BMP280;57747;43.548;-5.704;2022-07-01T10:04:09;101992.38;;;22.13
70333;BMP280;57747;43.548;-5.704;2022-07-01T10:09:54;101991.25;;;21.85
70333;BMP280;57747;43.548;-5.704;2022-07-01T10:12:29;101982.34;;;22.26
70333;BMP280;57747;43.548;-5.704;2022-07-01T10:14:58;101982.63;;;22.54
70333;BMP280;57747;43.548;-5.704;2022-07-01T10:17:30;101980.59;;;22.43
70333;BMP280;57747;43.548;-5.704;2022-07-01T10:20:07;101980.03;;;22.58
70333;BMP280;57747;43.548;-5.704;2022-07-01T10:22:35;101982.94;;;22.32
70333;BMP280;57747;43.548;-5.704;2022-07-01T10:25:30;101994.38;;;22.25
70333;BMP280;57747;43.548;-5.704;2022-07-01T10:28:12;101988.25;;;22.28
70333;BMP280;57747;43.548;-5.704;2022-07-01T10:41:28;101989.22;;;22.53
70333;BMP280;57747;43.548;-5.704;2022-07-01T10:43:54;101994.72;;;22.87
70333;BMP280;57747;43.548;-5.704;2022-07-01T10:49:07;101982.88;;;22.41
70333;BMP280;57747;43.548;-5.704;2022-07-01T10:51:51;101994.63;;;22.11
70333;BMP280;57747;43.548;-5.704;2022-07-01T10:59:46;101976.22;;;23.05
70333;BMP280;57747;43.548;-5.704;2022-07-01T11:02:38;101979.59;;;22.68
70333;BMP280;57747;43.548;-5.704;2022-07-01T11:05:08;101983.56;;;22.58
70333;BMP280;57747;43.548;-5.704;2022-07-01T11:07:36;101967.47;;;22.78
70333;BMP280;57747;43.548;-5.704;2022-07-01T11:10:07;101976.34;;;23.08
70333;BMP280;57747;43.548;-5.704;2022-07-01T11:12:37;101971.72;;;22.88
70333;BMP280;57747;43.548;-5.704;2022-07-01T11:15:06;101971.25;;;23.68
70333;BMP280;57747;43.548;-5.704;2022-07-01T11:17:33;101968.34;;;23.03
70333;BMP280;57747;43.548;-5.704;2022-07-01T11:20:00;101968.03;;;23.29
70333;BMP280;57747;43.548;-5.704;2022-07-01T11:22:33;101968.28;;;23.37
70333;BMP280;57747;43.548;-5.704;2022-07-01T11:25:02;101965.09;;;23.59
70333;BMP280;57747;43.548;-5.704;2022-07-01T11:27:28;101965.13;;;23.47
70333;BMP280;57747;43.548;-5.704;2022-07-01T11:29:59;101971.16;;;23.28
70333;BMP280;57747;43.548;-5.704;2022-07-01T11:32:33;101973.88;;;22.94
70333;BMP280;57747;43.548;-5.704;2022-07-01T11:35:01;101971.69;;;23.21
70333;BMP280;57747;43.548;-5.704;2022-07-01T11:37:31;101972.31;;;23.64
70333;BMP280;57747;43.548;-5.704;2022-07-01T11:40:17;101971.97;;;23.65
70333;BMP280;57747;43.548;-5.704;2022-07-01T11:42:44;101969.34;;;23.57
70333;BMP280;57747;43.548;-5.704;2022-07-01T11:45:22;101965.13;;;23.84
70333;BMP280;57747;43.548;-5.704;2022-07-01T11:47:47;101971.38;;;23.84
70333;BMP280;57747;43.548;-5.704;2022-07-01T11:50:17;101970.31;;;23.27
70333;BMP280;57747;43.548;-5.704;2022-07-01T11:52:46;101973.06;;;23.15
70333;BMP280;57747;43.548;-5.704;2022-07-01T11:55:11;101969.91;;;23.50
70333;BMP280;57747;43.548;-5.704;2022-07-01T11:57:37;101964.34;;;24.24
70333;BMP280;57747;43.548;-5.704;2022-07-01T12:00:11;101966.59;;;24.22
70333;BMP280;57747;43.548;-5.704;2022-07-01T12:02:37;101955.41;;;23.74
70333;BMP280;57747;43.548;-5.704;2022-07-01T12:05:07;101962.81;;;23.73
70333;BMP280;57747;43.548;-5.704;2022-07-01T12:07:35;101967.22;;;24.15
70333;BMP280;57747;43.548;-5.704;2022-07-01T12:10:03;101969.22;;;23.78
70333;BMP280;57747;43.548;-5.704;2022-07-01T12:12:29;101971.84;;;23.86
70333;BMP280;57747;43.548;-5.704;2022-07-01T12:14:57;101980.53;;;24.29
70333;BMP280;57747;43.548;-5.704;2022-07-01T12:17:24;101973.34;;;24.24
70333;BMP280;57747;43.548;-5.704;2022-07-01T12:19:52;101976.88;;;24.37
70333;BMP280;57747;43.548;-5.704;2022-07-01T12:22:20;101977.16;;;24.07
70333;BMP280;57747;43.548;-5.704;2022-07-01T12:24:47;101974.19;;;24.25
70333;BMP280;57747;43.548;-5.704;2022-07-01T12:27:13;101968.22;;;24.23
70333;BMP280;57747;43.548;-5.704;2022-07-01T12:32:26;101969.25;;;24.18
70333;BMP280;57747;43.548;-5.704;2022-07-01T12:37:26;101974.69;;;23.78
70333;BMP280;57747;43.548;-5.704;2022-07-01T12:40:00;101969.34;;;23.69
70333;BMP280;57747;43.548;-5.704;2022-07-01T12:42:35;101976.84;;;23.72
70333;BMP280;57747;43.548;-5.704;2022-07-01T12:45:09;101967.50;;;23.73
70333;BMP280;57747;43.548;-5.704;2022-07-01T12:47:38;101966.94;;;23.80
70333;BMP280;57747;43.548;-5.704;2022-07-01T12:52:41;101961.09;;;23.81
70333;BMP280;57747;43.548;-5.704;2022-07-01T12:55:14;101953.69;;;23.57
70333;BMP280;57747;43.548;-5.704;2022-07-01T12:57:40;101956.13;;;23.71
70333;BMP280;57747;43.548;-5.704;2022-07-01T13:00:06;101963.22;;;24.25
70333;BMP280;57747;43.548;-5.704;2022-07-01T13:02:31;101953.81;;;23.73
70333;BMP280;57747;43.548;-5.704;2022-07-01T13:04:57;101949.94;;;23.86
70333;BMP280;57747;43.548;-5.704;2022-07-01T13:07:27;101958.94;;;23.74
70333;BMP280;57747;43.548;-5.704;2022-07-01T13:09:52;101951.59;;;24.03
70333;BMP280;57747;43.548;-5.704;2022-07-01T13:12:19;101948.22;;;23.69
70333;BMP280;57747;43.548;-5.704;2022-07-01T13:14:45;101954.28;;;23.63
70333;BMP280;57747;43.548;-5.704;2022-07-01T13:17:10;101960.16;;;24.02
70333;BMP280;57747;43.548;-5.704;2022-07-01T13:19:41;101948.09;;;24.03
70333;BMP280;57747;43.548;-5.704;2022-07-01T13:22:07;101949.00;;;24.35
70333;BMP280;57747;43.548;-5.704;2022-07-01T13:24:32;101959.31;;;23.73
70333;BMP280;57747;43.548;-5.704;2022-07-01T13:27:01;101957.59;;;23.56
70333;BMP280;57747;43.548;-5.704;2022-07-01T13:29:26;101958.81;;;23.83
70333;BMP280;57747;43.548;-5.704;2022-07-01T13:31:52;101959.97;;;23.70
70333;BMP280;57747;43.548;-5.704;2022-07-01T13:34:17;101954.94;;;23.72
70333;BMP280;57747;43.548;-5.704;2022-07-01T13:36:43;101964.66;;;24.35
70333;BMP280;57747;43.548;-5.704;2022-07-01T13:39:09;101968.22;;;24.23
70333;BMP280;57747;43.548;-5.704;2022-07-01T13:41:35;101960.81;;;24.23
70333;BMP280;57747;43.548;-5.704;2022-07-01T13:44:03;101969.63;;;24.04
70333;BMP280;57747;43.548;-5.704;2022-07-01T13:46:34;101963.47;;;24.07
70333;BMP280;57747;43.548;-5.704;2022-07-01T13:49:05;101969.34;;;24.22
70333;BMP280;57747;43.548;-5.704;2022-07-01T13:51:33;101955.06;;;23.51
70333;BMP280;57747;43.548;-5.704;2022-07-01T13:53:59;101955.63;;;23.81
70333;BMP280;57747;43.548;-5.704;2022-07-01T13:56:27;101943.16;;;23.10
70333;BMP280;57747;43.548;-5.704;2022-07-01T13:58:54;101957.50;;;23.65
70333;BMP280;57747;43.548;-5.704;2022-07-01T14:01:21;101958.47;;;23.97
70333;BMP280;57747;43.548;-5.704;2022-07-01T14:03:50;101960.72;;;24.20
70333;BMP280;57747;43.548;-5.704;2022-07-01T14:06:24;101947.03;;;24.07
70333;BMP280;57747;43.548;-5.704;2022-07-01T14:08:49;101947.00;;;24.32
70333;BMP280;57747;43.548;-5.704;2022-07-01T14:11:15;101942.38;;;24.36
70333;BMP280;57747;43.548;-5.704;2022-07-01T14:13:41;101949.31;;;24.46
70333;BMP280;57747;43.548;-5.704;2022-07-01T14:16:07;101943.25;;;24.40
70333;BMP280;57747;43.548;-5.704;2022-07-01T14:18:36;101944.16;;;24.72
70333;BMP280;57747;43.548;-5.704;2022-07-01T14:21:06;101933.88;;;24.54
70333;BMP280;57747;43.548;-5.704;2022-07-01T14:23:32;101936.06;;;24.92
70333;BMP280;57747;43.548;-5.704;2022-07-01T14:26:01;101944.94;;;24.17